createdAt,value
2019-06-08T00:01:04.087Z,4.55
2019-06-08T00:03:33.762Z,4.40
2019-06-08T00:06:03.471Z,3.08
2019-06-08T00:08:33.154Z,3.35
2019-06-08T00:11:02.931Z,3.12
2019-06-08T00:13:32.609Z,2.40
2019-06-08T00:16:02.660Z,2.50
2019-06-08T00:18:32.337Z,2.08
2019-06-08T00:21:02.001Z,1.87
2019-06-08T00:23:31.722Z,1.98
2019-06-08T00:26:01.417Z,1.85
2019-06-08T00:28:31.078Z,1.60
2019-06-08T00:31:00.786Z,1.30
2019-06-08T00:33:30.510Z,1.30
2019-06-08T00:36:00.159Z,1.12
2019-06-08T00:38:29.876Z,0.98
2019-06-08T00:40:59.588Z,0.90
2019-06-08T00:43:29.243Z,1.05
2019-06-08T00:45:59.027Z,0.98
2019-06-08T00:48:28.799Z,1.20
2019-06-08T00:50:58.451Z,1.55
2019-06-08T00:53:29.581Z,0.98
2019-06-08T00:55:59.368Z,1.07
2019-06-08T00:58:30.466Z,0.93
2019-06-08T01:01:00.261Z,0.80
2019-06-08T01:03:30.072Z,1.00
2019-06-08T01:05:59.717Z,0.90
2019-06-08T01:08:30.525Z,0.80
2019-06-08T01:11:00.207Z,0.80
2019-06-08T01:13:29.876Z,0.88
2019-06-08T01:16:00.129Z,0.60
2019-06-08T01:18:29.809Z,1.00
2019-06-08T01:20:59.475Z,1.10
2019-06-08T01:23:29.840Z,0.70
2019-06-08T01:25:59.566Z,0.70
2019-06-08T01:28:30.285Z,0.93
2019-06-08T01:31:00.004Z,0.90
2019-06-08T01:33:30.861Z,0.60
2019-06-08T01:36:00.673Z,0.70
2019-06-08T01:38:31.208Z,0.90
2019-06-08T01:41:00.963Z,0.80
2019-06-08T01:43:31.724Z,0.88
2019-06-08T01:46:01.488Z,0.70
2019-06-08T01:48:32.275Z,0.88
2019-06-08T01:51:02.080Z,0.95
2019-06-08T01:53:32.924Z,0.62
2019-06-08T01:56:02.814Z,0.88
2019-06-08T01:58:33.507Z,0.70
2019-06-08T02:01:03.219Z,0.90
2019-06-08T02:03:34.838Z,0.70
2019-06-08T02:06:04.900Z,0.90
2019-06-08T02:08:34.752Z,0.70
2019-06-08T02:11:04.727Z,0.90
2019-06-08T02:13:35.255Z,1.00
2019-06-08T02:16:05.800Z,0.90
2019-06-08T02:18:47.073Z,0.70
2019-06-08T02:21:08.650Z,0.70
2019-06-08T02:23:39.612Z,1.10
2019-06-08T02:26:09.462Z,1.05
2019-06-08T02:28:40.134Z,0.78
2019-06-08T02:31:09.861Z,0.72
2019-06-08T02:33:40.501Z,0.70
2019-06-08T02:36:11.332Z,0.85
2019-06-08T02:38:41.027Z,0.72
2019-06-08T02:41:10.744Z,0.80
2019-06-08T02:43:41.067Z,0.60
2019-06-08T02:46:10.771Z,0.70
2019-06-08T02:49:02.226Z,0.68
2019-06-08T02:51:13.891Z,0.72
2019-06-08T02:53:43.650Z,0.70
2019-06-08T02:56:15.997Z,0.75
2019-06-08T02:58:47.717Z,0.88
2019-06-08T03:02:19.503Z,0.68
2019-06-08T03:04:50.974Z,0.80
2019-06-08T03:07:22.838Z,0.70
2019-06-08T03:09:55.517Z,0.72
2019-06-08T03:12:27.709Z,0.80
2019-06-08T03:14:58.799Z,0.75
2019-06-08T03:17:28.516Z,0.93
2019-06-08T03:19:58.217Z,0.90
2019-06-08T03:22:27.935Z,0.80
2019-06-08T03:24:57.633Z,0.70
2019-06-08T03:27:27.335Z,1.00
2019-06-08T03:29:57.039Z,0.80
2019-06-08T03:32:26.743Z,1.20
2019-06-08T03:34:57.342Z,0.80
2019-06-08T03:37:27.138Z,0.80
2019-06-08T03:39:56.813Z,0.90
2019-06-08T03:42:26.511Z,0.70
2019-06-08T03:44:56.258Z,0.80
2019-06-08T03:47:25.917Z,0.65
2019-06-08T03:49:57.571Z,0.55
2019-06-08T03:52:27.026Z,0.90
2019-06-08T03:54:56.715Z,0.70
2019-06-08T03:57:26.477Z,0.95
2019-06-08T03:59:56.160Z,0.62
2019-06-08T04:02:25.833Z,1.10
2019-06-08T04:04:55.555Z,0.80
2019-06-08T04:07:25.748Z,0.78
2019-06-08T04:09:55.416Z,0.70
2019-06-08T04:12:25.108Z,0.80
2019-06-08T04:14:54.863Z,0.90
2019-06-08T04:17:24.553Z,0.80
2019-06-08T04:20:09.489Z,0.78
2019-06-08T04:22:25.591Z,0.95
2019-06-08T04:24:55.297Z,0.78
2019-06-08T04:27:24.976Z,0.80
2019-06-08T04:29:54.710Z,1.00
2019-06-08T04:32:24.453Z,0.60
2019-06-08T04:34:54.153Z,1.00
2019-06-08T04:37:23.823Z,0.90
2019-06-08T04:39:53.859Z,0.72
2019-06-08T04:42:23.688Z,0.80
2019-06-08T04:44:53.675Z,1.00
2019-06-08T04:47:25.703Z,0.70
2019-06-08T04:49:55.427Z,0.80
2019-06-08T04:52:29.152Z,0.80
2019-06-08T04:55:01.544Z,0.80
2019-06-08T04:57:31.665Z,0.78
2019-06-08T05:00:11.516Z,0.70
2019-06-08T05:02:36.316Z,0.70
2019-06-08T05:05:10.923Z,0.90
2019-06-08T05:07:45.893Z,0.75
2019-06-08T05:10:16.663Z,1.20
2019-06-08T05:12:47.742Z,0.90
2019-06-08T05:15:17.831Z,0.60
2019-06-08T05:17:47.669Z,0.88
2019-06-08T05:20:37.590Z,0.90
2019-06-08T05:22:56.506Z,1.10
2019-06-08T05:25:26.346Z,0.80
2019-06-08T05:27:56.040Z,1.00
2019-06-08T05:30:28.108Z,0.90
2019-06-08T05:32:57.238Z,0.90
2019-06-08T05:35:27.205Z,1.07
2019-06-08T05:37:56.931Z,0.60
2019-06-08T05:40:26.705Z,0.88
2019-06-08T05:42:59.022Z,1.00
2019-06-08T05:45:37.747Z,0.60
2019-06-08T05:48:07.520Z,1.10
2019-06-08T05:50:37.217Z,0.88
2019-06-08T05:53:06.977Z,0.98
2019-06-08T05:55:36.782Z,0.70
2019-06-08T05:58:07.038Z,0.88
2019-06-08T06:00:36.993Z,1.00
2019-06-08T06:03:09.873Z,0.88
2019-06-08T06:05:48.475Z,0.93
2019-06-08T06:08:19.216Z,0.70
2019-06-08T06:10:51.596Z,0.82
2019-06-08T06:13:27.084Z,0.93
2019-06-08T06:15:56.820Z,0.80
2019-06-08T06:18:42.866Z,1.07
2019-06-08T06:21:21.903Z,0.68
2019-06-08T06:23:57.191Z,1.10
2019-06-08T06:26:28.003Z,0.90
2019-06-08T06:29:01.724Z,0.80
2019-06-08T06:31:31.586Z,0.72
2019-06-08T06:34:01.408Z,0.80
2019-06-08T06:36:31.483Z,1.10
2019-06-08T06:39:01.200Z,0.80
2019-06-08T06:41:34.751Z,0.80
2019-06-08T06:44:05.853Z,0.85
2019-06-08T06:46:37.306Z,0.75
2019-06-08T06:49:09.549Z,0.90
2019-06-08T06:51:42.365Z,0.85
2019-06-08T06:54:23.599Z,0.50
2019-06-08T06:56:57.407Z,0.60
2019-06-08T06:59:33.744Z,0.62
2019-06-08T07:02:05.905Z,1.05
2019-06-08T07:04:54.352Z,0.80
2019-06-08T07:07:50.244Z,0.90
2019-06-08T07:10:31.124Z,0.80
2019-06-08T07:13:07.485Z,0.90
2019-06-08T07:16:28.993Z,1.10
2019-06-08T07:23:43.303Z,1.07
2019-06-08T07:31:06.847Z,0.85
2019-06-08T07:34:30.920Z,0.90
2019-06-08T07:37:41.762Z,0.70
2019-06-08T07:40:14.654Z,1.07
2019-06-08T07:43:10.845Z,0.75
2019-06-08T07:45:56.420Z,0.70
2019-06-08T07:58:00.250Z,0.75
2019-06-08T08:04:04.282Z,0.78
2019-06-08T08:07:56.866Z,0.88
2019-06-08T08:22:19.619Z,0.50
2019-06-08T08:30:12.787Z,0.88
2019-06-08T08:34:20.121Z,0.60
2019-06-08T11:00:01.220Z,1.47
2019-06-08T11:02:52.051Z,0.70
2019-06-08T11:05:51.397Z,0.80
2019-06-08T11:08:27.507Z,1.25
2019-06-08T11:11:01.532Z,1.62
2019-06-08T11:13:33.321Z,1.37
2019-06-08T11:16:06.101Z,1.02
2019-06-08T11:18:35.830Z,1.20
2019-06-08T11:21:29.886Z,0.85
2019-06-08T11:24:07.423Z,1.42
2019-06-08T11:31:15.874Z,0.88
2019-06-08T11:34:28.896Z,0.88
2019-06-08T11:37:09.837Z,1.05
2019-06-08T11:40:30.684Z,1.07
2019-06-08T11:47:48.831Z,0.80
2019-06-08T11:52:15.269Z,1.00
2019-06-08T12:02:55.143Z,0.72
2019-06-08T12:18:15.148Z,4.30
2019-06-08T12:27:52.499Z,1.45
2019-06-08T12:30:25.473Z,1.50
2019-06-08T12:32:50.431Z,1.10
2019-06-08T12:35:20.140Z,0.68
2019-06-08T12:37:51.550Z,0.78
2019-06-08T12:40:22.382Z,1.00
2019-06-08T12:42:52.113Z,1.42
2019-06-08T12:45:21.886Z,0.90
2019-06-08T12:47:51.645Z,0.93
2019-06-08T12:50:21.528Z,0.80
2019-06-08T12:52:51.838Z,0.88
2019-06-08T12:55:25.075Z,0.72
2019-06-08T12:57:53.085Z,0.95
2019-06-08T13:00:22.966Z,0.80
2019-06-08T13:02:52.793Z,1.00
2019-06-08T13:05:23.078Z,0.80
2019-06-08T13:07:52.724Z,0.80
2019-06-08T13:10:24.210Z,1.00
2019-06-08T13:12:58.429Z,1.42
2019-06-08T13:15:30.935Z,1.07
2019-06-08T13:17:59.497Z,0.90
2019-06-08T13:20:29.208Z,0.90
2019-06-08T13:23:41.300Z,0.95
2019-06-08T13:33:28.267Z,0.93
2019-06-08T13:36:01.612Z,0.85
2019-06-08T13:38:34.365Z,0.70
2019-06-08T13:41:04.195Z,0.85
2019-06-08T13:43:35.951Z,2.25
2019-06-08T13:46:08.313Z,0.98
2019-06-08T13:48:38.067Z,2.55
2019-06-08T13:51:08.429Z,1.30
2019-06-08T13:53:39.484Z,0.80
2019-06-08T13:56:09.230Z,0.75
2019-06-08T13:58:40.469Z,0.75
2019-06-08T14:01:10.288Z,1.25
2019-06-08T14:03:40.265Z,0.95
2019-06-08T14:06:10.065Z,0.85
2019-06-08T14:08:40.974Z,0.80
2019-06-08T14:11:10.737Z,0.90
2019-06-08T14:13:40.596Z,0.88
2019-06-08T14:16:11.486Z,0.88
2019-06-08T14:18:41.652Z,1.17
2019-06-08T14:21:11.644Z,0.90
2019-06-08T14:23:41.531Z,0.80
2019-06-08T14:26:11.224Z,0.72
2019-06-08T14:43:38.175Z,0.60
2019-06-08T14:46:08.257Z,0.90
2019-06-08T14:48:38.168Z,0.80
2019-06-08T14:51:08.756Z,1.00
2019-06-08T14:53:39.132Z,0.62
2019-06-08T15:10:49.652Z,1.07
2019-06-08T15:13:18.907Z,0.80
2019-06-08T15:15:49.450Z,1.05
2019-06-08T15:18:23.859Z,0.65
2019-06-08T15:21:00.191Z,0.70
2019-06-08T15:23:32.683Z,0.90
2019-06-08T15:26:23.238Z,0.80
2019-06-08T15:28:41.444Z,0.90
2019-06-08T15:32:11.871Z,0.80
2019-06-08T15:36:05.544Z,0.80
2019-06-08T15:38:17.518Z,1.00
2019-06-08T15:40:59.235Z,0.70
2019-06-08T15:43:35.859Z,0.70
2019-06-08T15:46:01.213Z,1.00
2019-06-08T15:48:32.247Z,1.00
2019-06-08T15:51:42.527Z,0.80
2019-06-08T15:54:34.910Z,0.70
2019-06-08T15:57:07.125Z,0.80
2019-06-08T15:59:41.747Z,0.80
2019-06-08T16:02:19.860Z,1.00
2019-06-08T16:05:01.527Z,1.05
2019-06-08T16:07:45.277Z,0.95
2019-06-08T16:10:39.099Z,1.00
2019-06-08T16:13:40.544Z,0.80
2019-06-08T16:16:29.150Z,0.90
2019-06-08T16:19:27.359Z,0.85
2019-06-08T16:21:55.374Z,0.78
2019-06-08T16:24:31.865Z,0.85
2019-06-08T16:27:07.544Z,0.85
2019-06-08T16:29:47.090Z,0.72
2019-06-08T16:32:29.165Z,0.72
2019-06-08T16:35:29.639Z,0.80
2019-06-08T16:37:59.515Z,0.93
2019-06-08T16:40:32.228Z,0.80
2019-06-08T16:43:13.593Z,1.00
2019-06-08T16:49:53.791Z,0.70
2019-06-08T16:52:42.806Z,0.60
2019-06-08T16:59:30.673Z,1.10
2019-06-08T17:03:29.288Z,1.05
2019-06-08T17:05:59.593Z,0.93
2019-06-08T17:08:36.708Z,1.22
2019-06-08T17:11:04.585Z,0.90
2019-06-08T17:13:36.170Z,1.07
2019-06-08T17:16:30.037Z,1.20
2019-06-08T17:18:59.764Z,1.30
2019-06-08T17:21:30.049Z,0.90
2019-06-08T17:24:09.068Z,1.12
2019-06-08T17:26:40.775Z,0.98
2019-06-08T17:29:11.719Z,0.88
2019-06-08T17:31:41.540Z,0.88
2019-06-08T17:34:20.431Z,1.00
2019-06-08T17:36:50.613Z,0.85
2019-06-08T17:48:53.422Z,1.10
2019-06-08T17:54:53.831Z,1.00
2019-06-08T17:57:53.533Z,0.88
2019-06-08T18:00:24.943Z,1.15
2019-06-08T18:02:57.790Z,0.90
2019-06-08T18:05:28.364Z,1.00
2019-06-08T18:07:58.252Z,1.20
2019-06-08T18:10:30.012Z,0.85
2019-06-08T18:13:01.766Z,1.17
2019-06-08T18:15:36.590Z,0.88
2019-06-08T18:18:45.365Z,1.00
2019-06-08T18:21:24.451Z,1.07
2019-06-08T18:23:50.664Z,1.35
2019-06-08T18:32:44.108Z,1.00
2019-06-08T18:35:18.409Z,1.15
2019-06-08T18:37:50.417Z,1.22
2019-06-08T18:40:21.684Z,1.35
2019-06-08T18:42:51.847Z,0.98
2019-06-08T18:45:22.038Z,1.22
2019-06-08T18:47:52.211Z,0.95
2019-06-08T18:50:29.751Z,1.02
2019-06-08T18:55:33.803Z,1.12
2019-06-08T18:58:16.340Z,1.20
2019-06-08T19:00:43.024Z,1.20
2019-06-08T19:03:10.451Z,0.98
2019-06-08T19:06:03.208Z,1.37
2019-06-08T19:08:40.909Z,1.05
2019-06-08T19:11:10.548Z,1.20
2019-06-08T19:13:41.024Z,1.12
2019-06-08T19:16:33.131Z,2.27
2019-06-08T19:19:17.650Z,1.32
2019-06-08T19:21:50.459Z,1.62
2019-06-08T19:24:24.615Z,2.45
2019-06-08T19:27:00.772Z,2.62
2019-06-08T19:29:32.047Z,1.90
2019-06-08T19:32:07.407Z,1.87
2019-06-08T19:34:40.674Z,1.90
2019-06-08T19:48:53.243Z,2.30
2019-06-08T19:51:41.486Z,1.80
2019-06-08T20:01:43.906Z,5.92
2019-06-08T20:04:57.814Z,3.15
2019-06-08T20:07:44.883Z,2.25
2019-06-08T20:19:22.771Z,1.60
2019-06-08T20:37:47.766Z,2.02
2019-06-08T20:59:58.523Z,2.80
2019-06-08T21:10:58.947Z,1.60
2019-06-08T21:14:32.027Z,2.10
2019-06-08T21:17:32.244Z,1.82
2019-06-08T21:20:03.739Z,1.90
2019-06-08T21:22:33.421Z,1.92
2019-06-08T21:25:03.143Z,1.80
2019-06-08T21:27:32.875Z,1.40
2019-06-08T21:30:11.800Z,1.50
2019-06-08T21:32:34.238Z,1.50
2019-06-08T21:35:04.077Z,1.25
2019-06-08T21:37:37.542Z,1.40
2019-06-08T21:40:08.572Z,1.30
2019-06-08T21:42:39.951Z,1.82
2019-06-08T21:45:10.181Z,1.70
2019-06-08T21:47:39.849Z,1.72
2019-06-08T21:50:18.637Z,2.00
2019-06-08T21:52:51.392Z,1.90
2019-06-08T21:55:20.119Z,1.87
2019-06-08T21:57:52.285Z,1.80
2019-06-08T22:00:38.761Z,1.80
2019-06-08T22:02:53.905Z,1.90
2019-06-08T22:05:23.585Z,1.95
2019-06-08T22:07:54.054Z,2.02
2019-06-08T22:10:23.819Z,1.95
2019-06-08T22:12:55.105Z,1.77
2019-06-08T22:15:27.151Z,1.77
2019-06-08T22:18:00.159Z,1.70
2019-06-08T22:20:28.985Z,1.90
2019-06-08T22:22:59.797Z,1.82
2019-06-08T22:25:33.317Z,2.02
2019-06-08T22:28:03.996Z,1.92
2019-06-08T22:30:41.733Z,1.57
2019-06-08T22:33:05.089Z,2.00
2019-06-08T22:35:37.130Z,1.80
2019-06-08T22:38:08.505Z,1.85
2019-06-08T22:40:40.364Z,1.60
2019-06-08T22:43:10.043Z,1.60
2019-06-08T22:45:39.757Z,1.55
2019-06-08T22:48:09.450Z,1.47
2019-06-08T22:50:39.575Z,1.55
2019-06-08T22:53:09.274Z,1.60
2019-06-08T22:55:39.011Z,1.85
2019-06-08T22:58:08.670Z,2.02
2019-06-08T23:00:51.296Z,1.85
2019-06-08T23:03:09.761Z,1.90
2019-06-08T23:05:39.604Z,1.72
2019-06-08T23:08:09.637Z,1.45
2019-06-08T23:10:40.074Z,1.87
2019-06-08T23:13:10.175Z,1.50
2019-06-08T23:15:39.904Z,1.47
2019-06-08T23:18:10.109Z,1.25
2019-06-08T23:20:42.505Z,1.47
2019-06-08T23:23:12.168Z,1.42
2019-06-08T23:25:41.879Z,1.32
2019-06-08T23:28:11.955Z,1.55
2019-06-08T23:30:43.327Z,1.37
2019-06-08T23:33:13.067Z,1.30
2019-06-08T23:36:14.501Z,1.20
2019-06-08T23:38:14.153Z,1.55
2019-06-08T23:40:44.594Z,1.35
2019-06-08T23:43:14.257Z,1.17
2019-06-08T23:45:43.952Z,1.15
2019-06-08T23:48:13.669Z,1.35
2019-06-08T23:50:43.390Z,1.32
2019-06-08T23:53:13.079Z,1.07
2019-06-08T23:55:42.823Z,1.25
2019-06-08T23:58:12.510Z,1.00
